sensor_id;sensor_type;location;lat;lon;timestamp;P1;durP1;ratioP1;P2;durP2;ratioP2
45642;SDS011;31358;46.008;11.144;2024-01-11T00:02:10;22.17;;;14.35;;
45642;SDS011;31358;46.008;11.144;2024-01-11T00:04:36;27.10;;;14.88;;
45642;SDS011;31358;46.008;11.144;2024-01-11T00:07:01;28.33;;;14.35;;
45642;SDS011;31358;46.008;11.144;2024-01-11T00:09:27;27.67;;;15.52;;
45642;SDS011;31358;46.008;11.144;2024-01-11T00:11:53;24.92;;;15.40;;
45642;SDS011;31358;46.008;11.144;2024-01-11T00:14:18;31.55;;;18.45;;
45642;SDS011;31358;46.008;11.144;2024-01-11T00:16:44;26.23;;;16.13;;
45642;SDS011;31358;46.008;11.144;2024-01-11T00:19:09;28.50;;;15.30;;
45642;SDS011;31358;46.008;11.144;2024-01-11T00:21:35;23.33;;;13.85;;
45642;SDS011;31358;46.008;11.144;2024-01-11T00:24:01;27.25;;;15.48;;
45642;SDS011;31358;46.008;11.144;2024-01-11T00:26:26;27.42;;;16.13;;
45642;SDS011;31358;46.008;11.144;2024-01-11T00:28:52;26.75;;;15.32;;
45642;SDS011;31358;46.008;11.144;2024-01-11T00:31:18;27.80;;;15.82;;
45642;SDS011;31358;46.008;11.144;2024-01-11T00:33:43;27.08;;;15.07;;
45642;SDS011;31358;46.008;11.144;2024-01-11T00:36:09;26.38;;;15.00;;
45642;SDS011;31358;46.008;11.144;2024-01-11T00:38:34;25.55;;;14.55;;
45642;SDS011;31358;46.008;11.144;2024-01-11T00:41:00;25.38;;;14.07;;
45642;SDS011;31358;46.008;11.144;2024-01-11T00:43:26;24.88;;;14.65;;
45642;SDS011;31358;46.008;11.144;2024-01-11T00:45:51;27.00;;;14.50;;
45642;SDS011;31358;46.008;11.144;2024-01-11T00:48:17;25.23;;;15.40;;
45642;SDS011;31358;46.008;11.144;2024-01-11T00:50:42;27.92;;;15.13;;
45642;SDS011;31358;46.008;11.144;2024-01-11T00:53:08;28.92;;;16.23;;
45642;SDS011;31358;46.008;11.144;2024-01-11T00:55:35;26.15;;;15.70;;
45642;SDS011;31358;46.008;11.144;2024-01-11T00:58:00;25.30;;;13.95;;
45642;SDS011;31358;46.008;11.144;2024-01-11T01:00:26;24.83;;;14.98;;
45642;SDS011;31358;46.008;11.144;2024-01-11T01:02:52;26.10;;;14.63;;
45642;SDS011;31358;46.008;11.144;2024-01-11T01:05:19;28.92;;;16.58;;
45642;SDS011;31358;46.008;11.144;2024-01-11T01:07:44;23.20;;;13.93;;
45642;SDS011;31358;46.008;11.144;2024-01-11T01:10:11;28.15;;;16.33;;
45642;SDS011;31358;46.008;11.144;2024-01-11T01:12:36;28.48;;;15.60;;
45642;SDS011;31358;46.008;11.144;2024-01-11T01:15:02;28.40;;;15.95;;
45642;SDS011;31358;46.008;11.144;2024-01-11T01:17:28;27.08;;;15.52;;
45642;SDS011;31358;46.008;11.144;2024-01-11T01:19:53;28.38;;;16.13;;
45642;SDS011;31358;46.008;11.144;2024-01-11T01:22:19;31.10;;;17.15;;
45642;SDS011;31358;46.008;11.144;2024-01-11T01:24:45;28.80;;;15.70;;
45642;SDS011;31358;46.008;11.144;2024-01-11T01:27:10;25.73;;;15.30;;
45642;SDS011;31358;46.008;11.144;2024-01-11T01:29:36;30.98;;;15.50;;
45642;SDS011;31358;46.008;11.144;2024-01-11T01:32:02;23.92;;;13.45;;
45642;SDS011;31358;46.008;11.144;2024-01-11T01:34:27;26.50;;;15.45;;
45642;SDS011;31358;46.008;11.144;2024-01-11T01:36:53;24.35;;;14.52;;
45642;SDS011;31358;46.008;11.144;2024-01-11T01:39:19;27.17;;;14.77;;
45642;SDS011;31358;46.008;11.144;2024-01-11T01:41:44;23.90;;;13.52;;
45642;SDS011;31358;46.008;11.144;2024-01-11T01:44:10;26.40;;;13.68;;
45642;SDS011;31358;46.008;11.144;2024-01-11T01:46:36;28.00;;;16.38;;
45642;SDS011;31358;46.008;11.144;2024-01-11T01:49:02;23.83;;;13.35;;
45642;SDS011;31358;46.008;11.144;2024-01-11T01:51:29;27.35;;;16.17;;
45642;SDS011;31358;46.008;11.144;2024-01-11T01:53:57;23.25;;;13.13;;
45642;SDS011;31358;46.008;11.144;2024-01-11T01:56:23;27.80;;;16.00;;
45642;SDS011;31358;46.008;11.144;2024-01-11T01:58:50;27.52;;;14.55;;
45642;SDS011;31358;46.008;11.144;2024-01-11T02:01:17;27.42;;;14.63;;
45642;SDS011;31358;46.008;11.144;2024-01-11T02:03:45;27.23;;;15.48;;
45642;SDS011;31358;46.008;11.144;2024-01-11T02:06:14;24.77;;;14.95;;
45642;SDS011;31358;46.008;11.144;2024-01-11T02:08:40;27.67;;;14.60;;
45642;SDS011;31358;46.008;11.144;2024-01-11T02:11:08;24.73;;;13.65;;
45642;SDS011;31358;46.008;11.144;2024-01-11T02:13:36;24.42;;;13.77;;
45642;SDS011;31358;46.008;11.144;2024-01-11T02:16:02;21.80;;;12.45;;
45642;SDS011;31358;46.008;11.144;2024-01-11T02:18:29;26.15;;;13.38;;
45642;SDS011;31358;46.008;11.144;2024-01-11T02:20:55;22.63;;;13.80;;
45642;SDS011;31358;46.008;11.144;2024-01-11T02:23:21;22.80;;;14.15;;
45642;SDS011;31358;46.008;11.144;2024-01-11T02:25:50;23.92;;;14.27;;
45642;SDS011;31358;46.008;11.144;2024-01-11T02:28:17;25.30;;;13.82;;
45642;SDS011;31358;46.008;11.144;2024-01-11T02:30:42;25.27;;;14.15;;
45642;SDS011;31358;46.008;11.144;2024-01-11T02:33:08;24.80;;;15.00;;
45642;SDS011;31358;46.008;11.144;2024-01-11T02:35:34;25.98;;;12.60;;
45642;SDS011;31358;46.008;11.144;2024-01-11T02:38:03;20.50;;;12.95;;
45642;SDS011;31358;46.008;11.144;2024-01-11T02:40:30;21.88;;;11.93;;
45642;SDS011;31358;46.008;11.144;2024-01-11T02:42:56;21.38;;;12.05;;
45642;SDS011;31358;46.008;11.144;2024-01-11T02:45:22;23.20;;;13.35;;
45642;SDS011;31358;46.008;11.144;2024-01-11T02:47:48;24.42;;;13.65;;
45642;SDS011;31358;46.008;11.144;2024-01-11T02:50:14;19.77;;;12.38;;
45642;SDS011;31358;46.008;11.144;2024-01-11T02:52:39;21.30;;;12.52;;
45642;SDS011;31358;46.008;11.144;2024-01-11T02:55:05;22.67;;;12.60;;
45642;SDS011;31358;46.008;11.144;2024-01-11T02:57:31;24.23;;;13.98;;
45642;SDS011;31358;46.008;11.144;2024-01-11T02:59:56;20.05;;;11.52;;
45642;SDS011;31358;46.008;11.144;2024-01-11T03:02:22;21.52;;;12.18;;
45642;SDS011;31358;46.008;11.144;2024-01-11T03:04:48;18.42;;;10.73;;
45642;SDS011;31358;46.008;11.144;2024-01-11T03:07:13;19.55;;;11.23;;
45642;SDS011;31358;46.008;11.144;2024-01-11T03:09:39;19.77;;;11.25;;
45642;SDS011;31358;46.008;11.144;2024-01-11T03:12:05;21.35;;;11.70;;
45642;SDS011;31358;46.008;11.144;2024-01-11T03:14:31;18.67;;;10.88;;
45642;SDS011;31358;46.008;11.144;2024-01-11T03:16:57;17.90;;;11.23;;
45642;SDS011;31358;46.008;11.144;2024-01-11T03:19:23;22.55;;;9.93;;
45642;SDS011;31358;46.008;11.144;2024-01-11T03:21:48;19.83;;;11.10;;
45642;SDS011;31358;46.008;11.144;2024-01-11T03:24:14;17.73;;;10.27;;
45642;SDS011;31358;46.008;11.144;2024-01-11T03:26:40;17.17;;;9.43;;
45642;SDS011;31358;46.008;11.144;2024-01-11T03:29:06;18.58;;;10.93;;
45642;SDS011;31358;46.008;11.144;2024-01-11T03:31:32;19.13;;;10.15;;
45642;SDS011;31358;46.008;11.144;2024-01-11T03:33:58;16.83;;;10.60;;
45642;SDS011;31358;46.008;11.144;2024-01-11T03:36:24;18.52;;;10.50;;
45642;SDS011;31358;46.008;11.144;2024-01-11T03:38:50;16.77;;;9.52;;
45642;SDS011;31358;46.008;11.144;2024-01-11T03:41:15;17.75;;;9.40;;
45642;SDS011;31358;46.008;11.144;2024-01-11T03:43:41;16.75;;;9.10;;
45642;SDS011;31358;46.008;11.144;2024-01-11T03:46:07;20.58;;;11.63;;
45642;SDS011;31358;46.008;11.144;2024-01-11T03:48:32;20.83;;;11.75;;
45642;SDS011;31358;46.008;11.144;2024-01-11T03:51:00;20.13;;;11.07;;
45642;SDS011;31358;46.008;11.144;2024-01-11T03:53:26;17.45;;;9.57;;
45642;SDS011;31358;46.008;11.144;2024-01-11T03:55:52;17.10;;;9.38;;
45642;SDS011;31358;46.008;11.144;2024-01-11T03:58:18;18.23;;;9.98;;
45642;SDS011;31358;46.008;11.144;2024-01-11T04:00:43;22.10;;;12.07;;
45642;SDS011;31358;46.008;11.144;2024-01-11T04:03:09;21.83;;;12.57;;
45642;SDS011;31358;46.008;11.144;2024-01-11T04:05:34;17.95;;;10.13;;
45642;SDS011;31358;46.008;11.144;2024-01-11T04:08:03;16.25;;;9.38;;
45642;SDS011;31358;46.008;11.144;2024-01-11T04:10:32;19.37;;;10.83;;
45642;SDS011;31358;46.008;11.144;2024-01-11T04:12:58;17.40;;;10.13;;
45642;SDS011;31358;46.008;11.144;2024-01-11T04:15:23;13.05;;;8.48;;
45642;SDS011;31358;46.008;11.144;2024-01-11T04:17:49;14.82;;;8.90;;
45642;SDS011;31358;46.008;11.144;2024-01-11T04:20:15;13.80;;;8.02;;
45642;SDS011;31358;46.008;11.144;2024-01-11T04:22:40;14.20;;;7.78;;
45642;SDS011;31358;46.008;11.144;2024-01-11T04:25:06;14.20;;;7.75;;
45642;SDS011;31358;46.008;11.144;2024-01-11T04:27:32;14.63;;;8.48;;
45642;SDS011;31358;46.008;11.144;2024-01-11T04:29:58;15.15;;;8.18;;
45642;SDS011;31358;46.008;11.144;2024-01-11T04:32:24;13.82;;;8.38;;
45642;SDS011;31358;46.008;11.144;2024-01-11T04:34:49;14.38;;;7.70;;
45642;SDS011;31358;46.008;11.144;2024-01-11T04:37:15;14.63;;;8.63;;
45642;SDS011;31358;46.008;11.144;2024-01-11T04:39:41;16.00;;;9.35;;
45642;SDS011;31358;46.008;11.144;2024-01-11T04:42:06;13.77;;;7.85;;
45642;SDS011;31358;46.008;11.144;2024-01-11T04:44:32;12.57;;;7.25;;
45642;SDS011;31358;46.008;11.144;2024-01-11T04:46:57;12.50;;;7.40;;
45642;SDS011;31358;46.008;11.144;2024-01-11T04:49:23;13.15;;;8.20;;
45642;SDS011;31358;46.008;11.144;2024-01-11T04:51:49;13.07;;;7.53;;
45642;SDS011;31358;46.008;11.144;2024-01-11T04:54:15;11.65;;;7.50;;
45642;SDS011;31358;46.008;11.144;2024-01-11T04:56:40;14.43;;;8.18;;
45642;SDS011;31358;46.008;11.144;2024-01-11T04:59:06;13.65;;;7.63;;
45642;SDS011;31358;46.008;11.144;2024-01-11T05:01:32;13.70;;;7.28;;
45642;SDS011;31358;46.008;11.144;2024-01-11T05:03:58;12.75;;;7.75;;
45642;SDS011;31358;46.008;11.144;2024-01-11T05:06:23;17.73;;;9.20;;
45642;SDS011;31358;46.008;11.144;2024-01-11T05:08:50;14.68;;;7.10;;
45642;SDS011;31358;46.008;11.144;2024-01-11T05:11:21;12.68;;;7.13;;
45642;SDS011;31358;46.008;11.144;2024-01-11T05:13:49;14.52;;;8.10;;
45642;SDS011;31358;46.008;11.144;2024-01-11T05:16:18;15.85;;;8.45;;
45642;SDS011;31358;46.008;11.144;2024-01-11T05:18:48;12.98;;;6.75;;
45642;SDS011;31358;46.008;11.144;2024-01-11T05:21:15;13.00;;;7.75;;
45642;SDS011;31358;46.008;11.144;2024-01-11T05:23:41;12.57;;;7.60;;
45642;SDS011;31358;46.008;11.144;2024-01-11T05:26:07;12.50;;;8.02;;
45642;SDS011;31358;46.008;11.144;2024-01-11T05:28:33;15.07;;;8.43;;
45642;SDS011;31358;46.008;11.144;2024-01-11T05:30:59;12.32;;;7.38;;
45642;SDS011;31358;46.008;11.144;2024-01-11T05:33:25;12.38;;;6.97;;
45642;SDS011;31358;46.008;11.144;2024-01-11T05:35:51;11.70;;;6.43;;
45642;SDS011;31358;46.008;11.144;2024-01-11T05:38:18;14.15;;;6.82;;
45642;SDS011;31358;46.008;11.144;2024-01-11T05:40:44;12.05;;;7.20;;
45642;SDS011;31358;46.008;11.144;2024-01-11T05:43:10;13.50;;;6.97;;
45642;SDS011;31358;46.008;11.144;2024-01-11T05:45:36;11.50;;;6.90;;
45642;SDS011;31358;46.008;11.144;2024-01-11T05:48:01;11.50;;;6.47;;
45642;SDS011;31358;46.008;11.144;2024-01-11T05:50:27;11.80;;;6.60;;
45642;SDS011;31358;46.008;11.144;2024-01-11T05:52:53;10.93;;;5.95;;
45642;SDS011;31358;46.008;11.144;2024-01-11T05:55:19;11.43;;;6.13;;
45642;SDS011;31358;46.008;11.144;2024-01-11T05:57:45;10.43;;;6.70;;
45642;SDS011;31358;46.008;11.144;2024-01-11T06:00:11;12.52;;;6.40;;
45642;SDS011;31358;46.008;11.144;2024-01-11T06:02:37;15.00;;;7.03;;
45642;SDS011;31358;46.008;11.144;2024-01-11T06:05:03;11.18;;;7.30;;
45642;SDS011;31358;46.008;11.144;2024-01-11T06:07:29;10.48;;;6.60;;
45642;SDS011;31358;46.008;11.144;2024-01-11T06:09:54;10.10;;;5.72;;
45642;SDS011;31358;46.008;11.144;2024-01-11T06:12:20;11.40;;;6.30;;
45642;SDS011;31358;46.008;11.144;2024-01-11T06:14:46;10.75;;;6.22;;
45642;SDS011;31358;46.008;11.144;2024-01-11T06:17:11;12.82;;;7.20;;
45642;SDS011;31358;46.008;11.144;2024-01-11T06:19:37;11.40;;;6.47;;
45642;SDS011;31358;46.008;11.144;2024-01-11T06:22:03;11.83;;;6.40;;
45642;SDS011;31358;46.008;11.144;2024-01-11T06:24:30;12.25;;;6.55;;
45642;SDS011;31358;46.008;11.144;2024-01-11T06:26:56;11.85;;;6.63;;
45642;SDS011;31358;46.008;11.144;2024-01-11T06:29:22;13.60;;;6.80;;
45642;SDS011;31358;46.008;11.144;2024-01-11T06:31:47;9.20;;;5.80;;
45642;SDS011;31358;46.008;11.144;2024-01-11T06:34:13;11.02;;;6.38;;
45642;SDS011;31358;46.008;11.144;2024-01-11T06:36:38;11.20;;;6.87;;
45642;SDS011;31358;46.008;11.144;2024-01-11T06:39:04;10.32;;;6.15;;
45642;SDS011;31358;46.008;11.144;2024-01-11T06:41:30;14.90;;;8.13;;
45642;SDS011;31358;46.008;11.144;2024-01-11T06:43:55;13.55;;;8.15;;
45642;SDS011;31358;46.008;11.144;2024-01-11T06:46:21;11.13;;;6.55;;
45642;SDS011;31358;46.008;11.144;2024-01-11T06:48:48;12.00;;;7.28;;
45642;SDS011;31358;46.008;11.144;2024-01-11T06:51:20;10.70;;;6.47;;
45642;SDS011;31358;46.008;11.144;2024-01-11T06:53:46;9.27;;;5.17;;
45642;SDS011;31358;46.008;11.144;2024-01-11T06:56:16;11.27;;;6.10;;
45642;SDS011;31358;46.008;11.144;2024-01-11T06:58:42;12.73;;;5.60;;
45642;SDS011;31358;46.008;11.144;2024-01-11T07:01:09;10.63;;;6.30;;
45642;SDS011;31358;46.008;11.144;2024-01-11T07:03:35;12.23;;;6.35;;
45642;SDS011;31358;46.008;11.144;2024-01-11T07:06:01;11.05;;;6.40;;
45642;SDS011;31358;46.008;11.144;2024-01-11T07:08:28;12.02;;;6.22;;
45642;SDS011;31358;46.008;11.144;2024-01-11T07:10:54;10.38;;;6.15;;
45642;SDS011;31358;46.008;11.144;2024-01-11T07:13:20;10.80;;;5.22;;
45642;SDS011;31358;46.008;11.144;2024-01-11T07:15:45;11.13;;;6.23;;
45642;SDS011;31358;46.008;11.144;2024-01-11T07:18:13;9.63;;;6.00;;
45642;SDS011;31358;46.008;11.144;2024-01-11T07:20:38;10.55;;;6.55;;
45642;SDS011;31358;46.008;11.144;2024-01-11T07:23:04;10.70;;;6.27;;
45642;SDS011;31358;46.008;11.144;2024-01-11T07:25:30;9.65;;;5.55;;
45642;SDS011;31358;46.008;11.144;2024-01-11T07:27:55;10.02;;;5.38;;
45642;SDS011;31358;46.008;11.144;2024-01-11T07:30:21;8.13;;;5.17;;
45642;SDS011;31358;46.008;11.144;2024-01-11T07:32:47;10.73;;;5.30;;
45642;SDS011;31358;46.008;11.144;2024-01-11T07:35:13;10.00;;;6.53;;
45642;SDS011;31358;46.008;11.144;2024-01-11T07:37:39;8.30;;;4.18;;
45642;SDS011;31358;46.008;11.144;2024-01-11T07:40:05;11.27;;;5.97;;
45642;SDS011;31358;46.008;11.144;2024-01-11T07:42:39;10.43;;;5.20;;
45642;SDS011;31358;46.008;11.144;2024-01-11T07:45:08;10.48;;;6.07;;
45642;SDS011;31358;46.008;11.144;2024-01-11T07:47:38;9.57;;;5.22;;
45642;SDS011;31358;46.008;11.144;2024-01-11T07:50:05;10.60;;;5.47;;
45642;SDS011;31358;46.008;11.144;2024-01-11T07:52:37;10.20;;;5.18;;
45642;SDS011;31358;46.008;11.144;2024-01-11T07:55:04;9.50;;;5.33;;
45642;SDS011;31358;46.008;11.144;2024-01-11T07:57:39;11.17;;;5.33;;
45642;SDS011;31358;46.008;11.144;2024-01-11T08:00:05;8.50;;;4.93;;
45642;SDS011;31358;46.008;11.144;2024-01-11T08:02:32;9.30;;;5.55;;
45642;SDS011;31358;46.008;11.144;2024-01-11T08:04:58;9.30;;;5.03;;
45642;SDS011;31358;46.008;11.144;2024-01-11T08:07:25;9.18;;;5.38;;
45642;SDS011;31358;46.008;11.144;2024-01-11T08:09:51;10.63;;;5.13;;
45642;SDS011;31358;46.008;11.144;2024-01-11T08:12:17;9.07;;;5.27;;
45642;SDS011;31358;46.008;11.144;2024-01-11T08:14:43;9.05;;;5.45;;
45642;SDS011;31358;46.008;11.144;2024-01-11T08:17:10;10.65;;;5.47;;
45642;SDS011;31358;46.008;11.144;2024-01-11T08:19:35;8.32;;;4.80;;
45642;SDS011;31358;46.008;11.144;2024-01-11T08:22:01;9.05;;;5.20;;
45642;SDS011;31358;46.008;11.144;2024-01-11T08:24:27;10.60;;;5.07;;
45642;SDS011;31358;46.008;11.144;2024-01-11T08:26:53;7.70;;;4.97;;
45642;SDS011;31358;46.008;11.144;2024-01-11T08:29:18;8.82;;;4.85;;
45642;SDS011;31358;46.008;11.144;2024-01-11T08:31:45;7.88;;;4.70;;
45642;SDS011;31358;46.008;11.144;2024-01-11T08:34:11;9.93;;;5.07;;
45642;SDS011;31358;46.008;11.144;2024-01-11T08:36:36;8.40;;;4.35;;
45642;SDS011;31358;46.008;11.144;2024-01-11T08:39:04;8.65;;;4.40;;
45642;SDS011;31358;46.008;11.144;2024-01-11T08:41:36;8.73;;;5.55;;
45642;SDS011;31358;46.008;11.144;2024-01-11T08:44:03;7.72;;;5.03;;
45642;SDS011;31358;46.008;11.144;2024-01-11T08:46:31;9.15;;;5.10;;
45642;SDS011;31358;46.008;11.144;2024-01-11T08:48:58;13.45;;;4.90;;
45642;SDS011;31358;46.008;11.144;2024-01-11T08:51:24;9.18;;;5.22;;
45642;SDS011;31358;46.008;11.144;2024-01-11T08:53:50;8.18;;;4.50;;
45642;SDS011;31358;46.008;11.144;2024-01-11T08:56:17;7.93;;;4.38;;
45642;SDS011;31358;46.008;11.144;2024-01-11T08:58:43;10.40;;;5.38;;
45642;SDS011;31358;46.008;11.144;2024-01-11T09:01:09;8.80;;;4.82;;
45642;SDS011;31358;46.008;11.144;2024-01-11T09:03:35;9.35;;;4.53;;
45642;SDS011;31358;46.008;11.144;2024-01-11T09:06:01;9.15;;;4.55;;
45642;SDS011;31358;46.008;11.144;2024-01-11T09:08:29;10.35;;;5.35;;
45642;SDS011;31358;46.008;11.144;2024-01-11T09:10:55;9.10;;;5.13;;
45642;SDS011;31358;46.008;11.144;2024-01-11T09:13:23;7.55;;;4.30;;
45642;SDS011;31358;46.008;11.144;2024-01-11T09:15:48;9.52;;;5.00;;
45642;SDS011;31358;46.008;11.144;2024-01-11T09:18:14;8.45;;;4.88;;
45642;SDS011;31358;46.008;11.144;2024-01-11T09:20:41;11.25;;;5.47;;
45642;SDS011;31358;46.008;11.144;2024-01-11T09:23:06;9.60;;;5.05;;
45642;SDS011;31358;46.008;11.144;2024-01-11T09:25:33;8.32;;;4.80;;
45642;SDS011;31358;46.008;11.144;2024-01-11T09:27:59;9.18;;;4.78;;
45642;SDS011;31358;46.008;11.144;2024-01-11T09:30:25;8.40;;;4.40;;
45642;SDS011;31358;46.008;11.144;2024-01-11T09:32:50;10.10;;;4.70;;
45642;SDS011;31358;46.008;11.144;2024-01-11T09:35:17;7.32;;;4.03;;
45642;SDS011;31358;46.008;11.144;2024-01-11T09:37:42;7.65;;;4.18;;
45642;SDS011;31358;46.008;11.144;2024-01-11T09:40:11;12.60;;;4.72;;
45642;SDS011;31358;46.008;11.144;2024-01-11T09:42:37;8.68;;;4.70;;
45642;SDS011;31358;46.008;11.144;2024-01-11T09:45:05;8.90;;;4.53;;
45642;SDS011;31358;46.008;11.144;2024-01-11T09:47:37;7.90;;;4.28;;
45642;SDS011;31358;46.008;11.144;2024-01-11T09:50:05;10.60;;;4.85;;
45642;SDS011;31358;46.008;11.144;2024-01-11T09:52:31;10.30;;;4.90;;
45642;SDS011;31358;46.008;11.144;2024-01-11T09:54:58;8.98;;;5.30;;
45642;SDS011;31358;46.008;11.144;2024-01-11T09:57:30;9.77;;;4.97;;
45642;SDS011;31358;46.008;11.144;2024-01-11T09:59:57;8.52;;;4.47;;
45642;SDS011;31358;46.008;11.144;2024-01-11T10:02:24;9.48;;;4.25;;
45642;SDS011;31358;46.008;11.144;2024-01-11T10:04:53;8.77;;;5.20;;
45642;SDS011;31358;46.008;11.144;2024-01-11T10:07:19;8.45;;;4.10;;
45642;SDS011;31358;46.008;11.144;2024-01-11T10:09:48;8.95;;;3.90;;
45642;SDS011;31358;46.008;11.144;2024-01-11T10:12:14;9.85;;;3.90;;
45642;SDS011;31358;46.008;11.144;2024-01-11T10:14:40;8.10;;;4.05;;
45642;SDS011;31358;46.008;11.144;2024-01-11T10:17:06;9.77;;;4.80;;
45642;SDS011;31358;46.008;11.144;2024-01-11T10:19:32;7.30;;;4.30;;
45642;SDS011;31358;46.008;11.144;2024-01-11T10:21:58;7.22;;;4.10;;
45642;SDS011;31358;46.008;11.144;2024-01-11T10:24:23;7.35;;;4.30;;
45642;SDS011;31358;46.008;11.144;2024-01-11T10:26:51;7.10;;;3.55;;
45642;SDS011;31358;46.008;11.144;2024-01-11T10:29:20;9.48;;;4.82;;
45642;SDS011;31358;46.008;11.144;2024-01-11T10:31:46;8.68;;;4.55;;
45642;SDS011;31358;46.008;11.144;2024-01-11T10:34:12;7.45;;;4.43;;
45642;SDS011;31358;46.008;11.144;2024-01-11T10:36:38;8.07;;;3.78;;
45642;SDS011;31358;46.008;11.144;2024-01-11T10:39:05;7.60;;;4.20;;
45642;SDS011;31358;46.008;11.144;2024-01-11T10:41:38;7.90;;;4.63;;
45642;SDS011;31358;46.008;11.144;2024-01-11T10:44:19;9.68;;;4.30;;
45642;SDS011;31358;46.008;11.144;2024-01-11T10:46:49;8.38;;;3.70;;
45642;SDS011;31358;46.008;11.144;2024-01-11T10:49:16;10.30;;;4.78;;
45642;SDS011;31358;46.008;11.144;2024-01-11T10:51:49;7.85;;;4.13;;
45642;SDS011;31358;46.008;11.144;2024-01-11T10:54:21;9.75;;;3.58;;
45642;SDS011;31358;46.008;11.144;2024-01-11T10:56:48;7.38;;;4.30;;
45642;SDS011;31358;46.008;11.144;2024-01-11T10:59:14;6.90;;;3.92;;
45642;SDS011;31358;46.008;11.144;2024-01-11T11:01:43;8.50;;;4.60;;
45642;SDS011;31358;46.008;11.144;2024-01-11T11:04:10;8.80;;;5.40;;
45642;SDS011;31358;46.008;11.144;2024-01-11T11:06:36;10.23;;;6.45;;
45642;SDS011;31358;46.008;11.144;2024-01-11T11:09:04;10.10;;;5.05;;
45642;SDS011;31358;46.008;11.144;2024-01-11T11:11:32;13.70;;;6.03;;
45642;SDS011;31358;46.008;11.144;2024-01-11T11:13:59;9.48;;;5.63;;
45642;SDS011;31358;46.008;11.144;2024-01-11T11:16:26;13.68;;;6.80;;
45642;SDS011;31358;46.008;11.144;2024-01-11T11:18:54;9.18;;;4.75;;
45642;SDS011;31358;46.008;11.144;2024-01-11T11:21:21;10.60;;;5.82;;
45642;SDS011;31358;46.008;11.144;2024-01-11T11:23:47;8.35;;;5.10;;
45642;SDS011;31358;46.008;11.144;2024-01-11T11:26:14;8.48;;;5.00;;
45642;SDS011;31358;46.008;11.144;2024-01-11T11:28:42;8.38;;;5.10;;
45642;SDS011;31358;46.008;11.144;2024-01-11T11:31:08;9.98;;;5.85;;
45642;SDS011;31358;46.008;11.144;2024-01-11T11:33:36;11.57;;;6.93;;
45642;SDS011;31358;46.008;11.144;2024-01-11T11:36:02;9.48;;;5.95;;
45642;SDS011;31358;46.008;11.144;2024-01-11T11:38:29;9.40;;;5.38;;
45642;SDS011;31358;46.008;11.144;2024-01-11T11:40:57;14.40;;;7.13;;
45642;SDS011;31358;46.008;11.144;2024-01-11T11:43:24;10.77;;;5.43;;
45642;SDS011;31358;46.008;11.144;2024-01-11T11:45:52;9.52;;;5.47;;
45642;SDS011;31358;46.008;11.144;2024-01-11T11:56:00;14.25;;;8.30;;
45642;SDS011;31358;46.008;11.144;2024-01-11T11:58:27;12.80;;;7.68;;
45642;SDS011;31358;46.008;11.144;2024-01-11T12:00:54;13.18;;;8.85;;
45642;SDS011;31358;46.008;11.144;2024-01-11T12:03:32;29.13;;;15.95;;
45642;SDS011;31358;46.008;11.144;2024-01-11T12:06:02;19.88;;;9.80;;
45642;SDS011;31358;46.008;11.144;2024-01-11T12:08:29;18.23;;;10.48;;
45642;SDS011;31358;46.008;11.144;2024-01-11T12:10:56;37.22;;;23.02;;
45642;SDS011;31358;46.008;11.144;2024-01-11T12:13:22;30.27;;;16.55;;
45642;SDS011;31358;46.008;11.144;2024-01-11T12:15:48;18.98;;;8.88;;
45642;SDS011;31358;46.008;11.144;2024-01-11T12:18:14;10.10;;;5.53;;
45642;SDS011;31358;46.008;11.144;2024-01-11T12:20:40;10.50;;;5.82;;
45642;SDS011;31358;46.008;11.144;2024-01-11T12:23:05;19.83;;;14.60;;
45642;SDS011;31358;46.008;11.144;2024-01-11T12:25:31;19.00;;;11.80;;
45642;SDS011;31358;46.008;11.144;2024-01-11T12:27:57;16.17;;;9.82;;
45642;SDS011;31358;46.008;11.144;2024-01-11T12:30:23;12.23;;;7.88;;
45642;SDS011;31358;46.008;11.144;2024-01-11T12:32:52;13.80;;;8.30;;
45642;SDS011;31358;46.008;11.144;2024-01-11T12:35:19;24.40;;;16.10;;
45642;SDS011;31358;46.008;11.144;2024-01-11T12:37:55;12.75;;;7.72;;
45642;SDS011;31358;46.008;11.144;2024-01-11T12:40:23;14.82;;;7.53;;
45642;SDS011;31358;46.008;11.144;2024-01-11T12:42:49;10.20;;;5.38;;
45642;SDS011;31358;46.008;11.144;2024-01-11T12:45:18;9.25;;;6.40;;
45642;SDS011;31358;46.008;11.144;2024-01-11T12:47:47;8.30;;;5.00;;
45642;SDS011;31358;46.008;11.144;2024-01-11T12:50:13;7.50;;;4.40;;
45642;SDS011;31358;46.008;11.144;2024-01-11T12:52:39;8.55;;;4.93;;
45642;SDS011;31358;46.008;11.144;2024-01-11T12:55:07;9.73;;;5.45;;
45642;SDS011;31358;46.008;11.144;2024-01-11T12:57:34;8.25;;;4.68;;
45642;SDS011;31358;46.008;11.144;2024-01-11T13:00:12;8.00;;;4.45;;
45642;SDS011;31358;46.008;11.144;2024-01-11T13:02:39;10.25;;;4.47;;
45642;SDS011;31358;46.008;11.144;2024-01-11T13:05:05;6.70;;;4.15;;
45642;SDS011;31358;46.008;11.144;2024-01-11T13:07:32;6.82;;;3.70;;
45642;SDS011;31358;46.008;11.144;2024-01-11T13:09:59;6.15;;;3.63;;
45642;SDS011;31358;46.008;11.144;2024-01-11T13:12:24;6.82;;;3.45;;
45642;SDS011;31358;46.008;11.144;2024-01-11T13:14:50;9.48;;;4.75;;
45642;SDS011;31358;46.008;11.144;2024-01-11T13:17:18;7.47;;;3.83;;
45642;SDS011;31358;46.008;11.144;2024-01-11T13:19:44;7.40;;;4.38;;
45642;SDS011;31358;46.008;11.144;2024-01-11T13:22:10;8.70;;;4.15;;
45642;SDS011;31358;46.008;11.144;2024-01-11T13:24:35;6.18;;;3.83;;
45642;SDS011;31358;46.008;11.144;2024-01-11T13:27:01;7.10;;;3.97;;
45642;SDS011;31358;46.008;11.144;2024-01-11T13:29:27;7.82;;;3.70;;
45642;SDS011;31358;46.008;11.144;2024-01-11T13:31:52;6.63;;;3.95;;
45642;SDS011;31358;46.008;11.144;2024-01-11T13:34:18;7.57;;;4.72;;
45642;SDS011;31358;46.008;11.144;2024-01-11T13:36:44;8.65;;;4.78;;
45642;SDS011;31358;46.008;11.144;2024-01-11T13:39:10;7.70;;;4.22;;
45642;SDS011;31358;46.008;11.144;2024-01-11T13:41:35;6.25;;;3.97;;
45642;SDS011;31358;46.008;11.144;2024-01-11T13:44:01;7.70;;;4.30;;
45642;SDS011;31358;46.008;11.144;2024-01-11T13:46:27;11.52;;;4.35;;
45642;SDS011;31358;46.008;11.144;2024-01-11T13:48:53;9.10;;;3.92;;
45642;SDS011;31358;46.008;11.144;2024-01-11T13:51:18;9.25;;;5.05;;
45642;SDS011;31358;46.008;11.144;2024-01-11T13:53:44;18.83;;;7.45;;
45642;SDS011;31358;46.008;11.144;2024-01-11T13:56:11;10.10;;;5.07;;
45642;SDS011;31358;46.008;11.144;2024-01-11T13:58:37;11.93;;;5.05;;
45642;SDS011;31358;46.008;11.144;2024-01-11T14:01:03;7.63;;;3.88;;
45642;SDS011;31358;46.008;11.144;2024-01-11T14:03:29;7.35;;;4.32;;
45642;SDS011;31358;46.008;11.144;2024-01-11T14:05:55;7.53;;;4.40;;
45642;SDS011;31358;46.008;11.144;2024-01-11T14:08:20;5.93;;;3.30;;
45642;SDS011;31358;46.008;11.144;2024-01-11T14:10:46;7.10;;;3.72;;
45642;SDS011;31358;46.008;11.144;2024-01-11T14:13:12;6.55;;;3.50;;
45642;SDS011;31358;46.008;11.144;2024-01-11T14:15:37;8.48;;;4.18;;
45642;SDS011;31358;46.008;11.144;2024-01-11T14:18:05;6.45;;;3.95;;
45642;SDS011;31358;46.008;11.144;2024-01-11T14:20:31;8.60;;;4.00;;
45642;SDS011;31358;46.008;11.144;2024-01-11T14:22:59;8.10;;;4.80;;
45642;SDS011;31358;46.008;11.144;2024-01-11T14:25:24;6.55;;;4.28;;